sensor_id;sensor_type;location;lat;lon;timestamp;P1;durP1;ratioP1;P2;durP2;ratioP2
73642;SDS011;61938;48.652;9.292;2023-08-01T00:01:27;13.20;;;4.50;;
73642;SDS011;61938;48.652;9.292;2023-08-01T00:03:54;7.72;;;4.30;;
73642;SDS011;61938;48.652;9.292;2023-08-01T00:06:19;10.35;;;4.15;;
73642;SDS011;61938;48.652;9.292;2023-08-01T00:08:45;11.23;;;3.75;;
73642;SDS011;61938;48.652;9.292;2023-08-01T00:11:11;6.10;;;3.95;;
73642;SDS011;61938;48.652;9.292;2023-08-01T00:13:39;9.35;;;3.80;;
73642;SDS011;61938;48.652;9.292;2023-08-01T00:16:04;7.43;;;4.22;;
73642;SDS011;61938;48.652;9.292;2023-08-01T00:18:30;7.55;;;4.28;;
73642;SDS011;61938;48.652;9.292;2023-08-01T00:20:56;10.70;;;4.20;;
73642;SDS011;61938;48.652;9.292;2023-08-01T00:23:21;11.38;;;4.57;;
73642;SDS011;61938;48.652;9.292;2023-08-01T00:25:47;7.55;;;3.60;;
73642;SDS011;61938;48.652;9.292;2023-08-01T00:28:16;9.88;;;4.22;;
73642;SDS011;61938;48.652;9.292;2023-08-01T00:30:42;10.65;;;4.60;;
73642;SDS011;61938;48.652;9.292;2023-08-01T00:33:08;9.77;;;4.38;;
73642;SDS011;61938;48.652;9.292;2023-08-01T00:35:33;9.40;;;4.38;;
73642;SDS011;61938;48.652;9.292;2023-08-01T00:37:59;9.02;;;4.43;;
73642;SDS011;61938;48.652;9.292;2023-08-01T00:40:29;10.50;;;4.25;;
73642;SDS011;61938;48.652;9.292;2023-08-01T00:42:56;8.13;;;4.15;;
73642;SDS011;61938;48.652;9.292;2023-08-01T00:45:21;9.75;;;4.20;;
73642;SDS011;61938;48.652;9.292;2023-08-01T00:47:49;9.75;;;3.90;;
73642;SDS011;61938;48.652;9.292;2023-08-01T00:52:47;12.30;;;3.88;;
73642;SDS011;61938;48.652;9.292;2023-08-01T00:55:14;7.20;;;4.25;;
73642;SDS011;61938;48.652;9.292;2023-08-01T00:57:40;6.22;;;3.95;;
73642;SDS011;61938;48.652;9.292;2023-08-01T01:00:06;8.98;;;4.60;;
73642;SDS011;61938;48.652;9.292;2023-08-01T01:02:32;8.75;;;3.85;;
73642;SDS011;61938;48.652;9.292;2023-08-01T01:04:58;8.75;;;3.95;;
73642;SDS011;61938;48.652;9.292;2023-08-01T01:07:24;8.20;;;4.20;;
73642;SDS011;61938;48.652;9.292;2023-08-01T01:09:51;8.15;;;4.57;;
73642;SDS011;61938;48.652;9.292;2023-08-01T01:12:16;7.85;;;4.13;;
73642;SDS011;61938;48.652;9.292;2023-08-01T01:14:42;7.32;;;4.03;;
73642;SDS011;61938;48.652;9.292;2023-08-01T01:17:07;6.82;;;4.00;;
73642;SDS011;61938;48.652;9.292;2023-08-01T01:19:33;10.27;;;5.70;;
73642;SDS011;61938;48.652;9.292;2023-08-01T01:21:58;8.02;;;4.38;;
73642;SDS011;61938;48.652;9.292;2023-08-01T01:24:24;8.48;;;4.10;;
73642;SDS011;61938;48.652;9.292;2023-08-01T01:26:51;8.00;;;4.15;;
73642;SDS011;61938;48.652;9.292;2023-08-01T01:29:19;8.73;;;4.80;;
73642;SDS011;61938;48.652;9.292;2023-08-01T01:31:45;9.23;;;4.43;;
73642;SDS011;61938;48.652;9.292;2023-08-01T01:34:13;9.70;;;3.63;;
73642;SDS011;61938;48.652;9.292;2023-08-01T01:36:38;10.13;;;4.53;;
73642;SDS011;61938;48.652;9.292;2023-08-01T01:39:04;9.52;;;4.70;;
73642;SDS011;61938;48.652;9.292;2023-08-01T01:41:29;7.35;;;4.22;;
73642;SDS011;61938;48.652;9.292;2023-08-01T01:43:55;10.52;;;5.32;;
73642;SDS011;61938;48.652;9.292;2023-08-01T01:46:20;11.10;;;3.83;;
73642;SDS011;61938;48.652;9.292;2023-08-01T01:48:46;9.68;;;4.07;;
73642;SDS011;61938;48.652;9.292;2023-08-01T01:51:11;9.27;;;4.32;;
73642;SDS011;61938;48.652;9.292;2023-08-01T01:53:37;18.23;;;4.82;;
73642;SDS011;61938;48.652;9.292;2023-08-01T01:56:02;7.25;;;4.25;;
73642;SDS011;61938;48.652;9.292;2023-08-01T01:58:28;7.18;;;4.10;;
73642;SDS011;61938;48.652;9.292;2023-08-01T02:00:53;7.75;;;4.70;;
73642;SDS011;61938;48.652;9.292;2023-08-01T02:03:19;11.95;;;4.35;;
73642;SDS011;61938;48.652;9.292;2023-08-01T02:05:44;13.18;;;4.50;;
73642;SDS011;61938;48.652;9.292;2023-08-01T02:08:10;14.18;;;5.03;;
73642;SDS011;61938;48.652;9.292;2023-08-01T02:10:35;7.75;;;3.75;;
73642;SDS011;61938;48.652;9.292;2023-08-01T02:13:00;9.98;;;4.30;;
73642;SDS011;61938;48.652;9.292;2023-08-01T02:15:26;9.32;;;4.57;;
73642;SDS011;61938;48.652;9.292;2023-08-01T02:17:51;10.05;;;4.07;;
73642;SDS011;61938;48.652;9.292;2023-08-01T02:20:17;6.65;;;3.72;;
73642;SDS011;61938;48.652;9.292;2023-08-01T02:22:42;11.98;;;4.80;;
73642;SDS011;61938;48.652;9.292;2023-08-01T02:25:08;7.68;;;4.32;;
73642;SDS011;61938;48.652;9.292;2023-08-01T02:27:33;8.20;;;4.40;;
73642;SDS011;61938;48.652;9.292;2023-08-01T02:29:59;12.32;;;4.90;;
73642;SDS011;61938;48.652;9.292;2023-08-01T02:32:24;8.90;;;4.50;;
73642;SDS011;61938;48.652;9.292;2023-08-01T02:34:50;8.07;;;4.45;;
73642;SDS011;61938;48.652;9.292;2023-08-01T02:37:15;10.57;;;4.70;;
73642;SDS011;61938;48.652;9.292;2023-08-01T02:39:41;11.32;;;4.55;;
73642;SDS011;61938;48.652;9.292;2023-08-01T02:42:06;7.00;;;4.40;;
73642;SDS011;61938;48.652;9.292;2023-08-01T02:44:33;9.98;;;5.20;;
73642;SDS011;61938;48.652;9.292;2023-08-01T02:46:58;9.75;;;4.22;;
73642;SDS011;61938;48.652;9.292;2023-08-01T02:49:24;10.10;;;4.95;;
73642;SDS011;61938;48.652;9.292;2023-08-01T02:51:49;7.05;;;4.40;;
73642;SDS011;61938;48.652;9.292;2023-08-01T02:54:15;8.00;;;4.35;;
73642;SDS011;61938;48.652;9.292;2023-08-01T02:56:40;8.50;;;4.75;;
73642;SDS011;61938;48.652;9.292;2023-08-01T02:59:06;7.25;;;4.20;;
73642;SDS011;61938;48.652;9.292;2023-08-01T03:01:33;7.78;;;4.10;;
73642;SDS011;61938;48.652;9.292;2023-08-01T03:04:02;12.00;;;4.65;;
73642;SDS011;61938;48.652;9.292;2023-08-01T03:06:29;7.65;;;4.25;;
73642;SDS011;61938;48.652;9.292;2023-08-01T03:08:56;12.77;;;4.65;;
73642;SDS011;61938;48.652;9.292;2023-08-01T03:11:21;14.07;;;3.97;;
73642;SDS011;61938;48.652;9.292;2023-08-01T03:13:47;9.52;;;5.65;;
73642;SDS011;61938;48.652;9.292;2023-08-01T03:16:12;9.82;;;4.78;;
73642;SDS011;61938;48.652;9.292;2023-08-01T03:18:38;7.00;;;4.05;;
73642;SDS011;61938;48.652;9.292;2023-08-01T03:21:03;8.32;;;4.38;;
73642;SDS011;61938;48.652;9.292;2023-08-01T03:23:29;8.27;;;4.82;;
73642;SDS011;61938;48.652;9.292;2023-08-01T03:25:55;7.88;;;4.57;;
73642;SDS011;61938;48.652;9.292;2023-08-01T03:28:20;9.52;;;3.80;;
73642;SDS011;61938;48.652;9.292;2023-08-01T03:30:46;10.02;;;4.70;;
73642;SDS011;61938;48.652;9.292;2023-08-01T03:33:14;9.23;;;4.18;;
73642;SDS011;61938;48.652;9.292;2023-08-01T03:35:40;7.68;;;4.05;;
73642;SDS011;61938;48.652;9.292;2023-08-01T03:38:06;11.27;;;4.25;;
73642;SDS011;61938;48.652;9.292;2023-08-01T03:40:31;10.85;;;4.95;;
73642;SDS011;61938;48.652;9.292;2023-08-01T03:42:57;10.60;;;4.50;;
73642;SDS011;61938;48.652;9.292;2023-08-01T03:45:23;12.02;;;4.35;;
73642;SDS011;61938;48.652;9.292;2023-08-01T03:47:48;5.70;;;3.80;;
73642;SDS011;61938;48.652;9.292;2023-08-01T03:50:14;9.77;;;4.13;;
73642;SDS011;61938;48.652;9.292;2023-08-01T03:52:39;15.23;;;4.00;;
73642;SDS011;61938;48.652;9.292;2023-08-01T03:55:05;7.05;;;3.95;;
73642;SDS011;61938;48.652;9.292;2023-08-01T03:57:31;9.68;;;4.20;;
73642;SDS011;61938;48.652;9.292;2023-08-01T03:59:58;11.93;;;4.28;;
73642;SDS011;61938;48.652;9.292;2023-08-01T04:02:24;7.95;;;4.00;;
73642;SDS011;61938;48.652;9.292;2023-08-01T04:04:50;12.88;;;4.05;;
73642;SDS011;61938;48.652;9.292;2023-08-01T04:07:16;10.32;;;4.88;;
73642;SDS011;61938;48.652;9.292;2023-08-01T04:09:41;8.60;;;4.47;;
73642;SDS011;61938;48.652;9.292;2023-08-01T04:12:07;6.88;;;4.13;;
73642;SDS011;61938;48.652;9.292;2023-08-01T04:14:33;7.65;;;4.30;;
73642;SDS011;61938;48.652;9.292;2023-08-01T04:16:59;7.88;;;3.67;;
73642;SDS011;61938;48.652;9.292;2023-08-01T04:19:24;11.35;;;4.45;;
73642;SDS011;61938;48.652;9.292;2023-08-01T04:21:50;9.70;;;4.20;;
73642;SDS011;61938;48.652;9.292;2023-08-01T04:24:16;7.32;;;3.90;;
73642;SDS011;61938;48.652;9.292;2023-08-01T04:26:41;9.13;;;4.47;;
73642;SDS011;61938;48.652;9.292;2023-08-01T04:29:07;12.60;;;5.07;;
73642;SDS011;61938;48.652;9.292;2023-08-01T04:31:32;11.65;;;3.83;;
73642;SDS011;61938;48.652;9.292;2023-08-01T04:33:58;7.30;;;3.72;;
73642;SDS011;61938;48.652;9.292;2023-08-01T04:36:23;8.52;;;4.30;;
73642;SDS011;61938;48.652;9.292;2023-08-01T04:38:49;8.32;;;3.88;;
73642;SDS011;61938;48.652;9.292;2023-08-01T04:41:14;16.10;;;4.85;;
73642;SDS011;61938;48.652;9.292;2023-08-01T04:43:40;8.57;;;3.88;;
73642;SDS011;61938;48.652;9.292;2023-08-01T04:46:05;9.38;;;4.00;;
73642;SDS011;61938;48.652;9.292;2023-08-01T04:48:31;8.10;;;4.20;;
73642;SDS011;61938;48.652;9.292;2023-08-01T04:50:57;9.38;;;4.22;;
73642;SDS011;61938;48.652;9.292;2023-08-01T04:53:22;13.25;;;4.18;;
73642;SDS011;61938;48.652;9.292;2023-08-01T04:55:48;8.30;;;3.78;;
73642;SDS011;61938;48.652;9.292;2023-08-01T04:58:13;9.00;;;3.88;;
73642;SDS011;61938;48.652;9.292;2023-08-01T05:00:40;10.02;;;3.50;;
73642;SDS011;61938;48.652;9.292;2023-08-01T05:03:06;8.85;;;4.32;;
73642;SDS011;61938;48.652;9.292;2023-08-01T05:05:32;7.32;;;3.83;;
73642;SDS011;61938;48.652;9.292;2023-08-01T05:07:57;10.63;;;3.75;;
73642;SDS011;61938;48.652;9.292;2023-08-01T05:10:23;9.23;;;4.10;;
73642;SDS011;61938;48.652;9.292;2023-08-01T05:12:48;10.13;;;3.80;;
73642;SDS011;61938;48.652;9.292;2023-08-01T05:15:14;9.75;;;3.97;;
73642;SDS011;61938;48.652;9.292;2023-08-01T05:17:39;9.50;;;4.40;;
73642;SDS011;61938;48.652;9.292;2023-08-01T05:20:05;9.40;;;4.05;;
73642;SDS011;61938;48.652;9.292;2023-08-01T05:22:31;7.13;;;4.28;;
73642;SDS011;61938;48.652;9.292;2023-08-01T05:24:56;11.57;;;4.97;;
73642;SDS011;61938;48.652;9.292;2023-08-01T05:27:22;9.50;;;4.63;;
73642;SDS011;61938;48.652;9.292;2023-08-01T05:29:47;11.50;;;4.38;;
73642;SDS011;61938;48.652;9.292;2023-08-01T05:32:13;7.75;;;3.92;;
73642;SDS011;61938;48.652;9.292;2023-08-01T05:34:38;16.50;;;4.55;;
73642;SDS011;61938;48.652;9.292;2023-08-01T05:37:04;9.90;;;4.78;;
73642;SDS011;61938;48.652;9.292;2023-08-01T05:39:30;8.73;;;4.30;;
73642;SDS011;61938;48.652;9.292;2023-08-01T05:41:56;8.23;;;3.88;;
73642;SDS011;61938;48.652;9.292;2023-08-01T05:44:21;8.60;;;3.80;;
73642;SDS011;61938;48.652;9.292;2023-08-01T05:46:47;9.98;;;4.22;;
73642;SDS011;61938;48.652;9.292;2023-08-01T05:49:12;8.45;;;4.43;;
73642;SDS011;61938;48.652;9.292;2023-08-01T05:51:38;8.90;;;4.28;;
73642;SDS011;61938;48.652;9.292;2023-08-01T05:54:03;9.40;;;4.00;;
73642;SDS011;61938;48.652;9.292;2023-08-01T05:56:29;17.40;;;4.07;;
73642;SDS011;61938;48.652;9.292;2023-08-01T05:58:54;10.63;;;4.50;;
73642;SDS011;61938;48.652;9.292;2023-08-01T06:01:20;11.60;;;3.92;;
73642;SDS011;61938;48.652;9.292;2023-08-01T06:03:45;8.90;;;4.18;;
73642;SDS011;61938;48.652;9.292;2023-08-01T06:06:11;12.27;;;4.60;;
73642;SDS011;61938;48.652;9.292;2023-08-01T06:08:36;11.65;;;4.07;;
73642;SDS011;61938;48.652;9.292;2023-08-01T06:11:02;8.13;;;3.78;;
73642;SDS011;61938;48.652;9.292;2023-08-01T06:13:27;8.93;;;3.50;;
73642;SDS011;61938;48.652;9.292;2023-08-01T06:15:53;8.65;;;3.85;;
73642;SDS011;61938;48.652;9.292;2023-08-01T06:18:18;9.68;;;3.53;;
73642;SDS011;61938;48.652;9.292;2023-08-01T06:20:44;10.93;;;3.60;;
73642;SDS011;61938;48.652;9.292;2023-08-01T06:23:09;8.95;;;2.97;;
73642;SDS011;61938;48.652;9.292;2023-08-01T06:25:35;9.80;;;3.28;;
73642;SDS011;61938;48.652;9.292;2023-08-01T06:28:00;5.35;;;3.17;;
73642;SDS011;61938;48.652;9.292;2023-08-01T06:30:26;7.78;;;3.45;;
73642;SDS011;61938;48.652;9.292;2023-08-01T06:32:51;6.78;;;3.72;;
73642;SDS011;61938;48.652;9.292;2023-08-01T06:35:17;7.97;;;3.70;;
73642;SDS011;61938;48.652;9.292;2023-08-01T06:37:42;7.25;;;3.67;;
73642;SDS011;61938;48.652;9.292;2023-08-01T06:40:08;8.35;;;3.85;;
73642;SDS011;61938;48.652;9.292;2023-08-01T06:42:34;9.48;;;4.00;;
73642;SDS011;61938;48.652;9.292;2023-08-01T06:45:00;10.85;;;4.20;;
73642;SDS011;61938;48.652;9.292;2023-08-01T06:47:25;8.07;;;4.53;;
73642;SDS011;61938;48.652;9.292;2023-08-01T06:49:51;7.25;;;4.10;;
73642;SDS011;61938;48.652;9.292;2023-08-01T06:52:16;15.38;;;4.97;;
73642;SDS011;61938;48.652;9.292;2023-08-01T06:54:41;9.43;;;4.47;;
73642;SDS011;61938;48.652;9.292;2023-08-01T06:57:07;9.77;;;4.70;;
73642;SDS011;61938;48.652;9.292;2023-08-01T06:59:33;13.23;;;5.00;;
73642;SDS011;61938;48.652;9.292;2023-08-01T07:01:58;10.68;;;4.82;;
73642;SDS011;61938;48.652;9.292;2023-08-01T07:04:24;9.82;;;5.00;;
73642;SDS011;61938;48.652;9.292;2023-08-01T07:06:49;15.13;;;5.13;;
73642;SDS011;61938;48.652;9.292;2023-08-01T07:09:15;10.13;;;5.13;;
73642;SDS011;61938;48.652;9.292;2023-08-01T07:11:40;9.25;;;5.10;;
73642;SDS011;61938;48.652;9.292;2023-08-01T07:14:06;9.30;;;5.40;;
73642;SDS011;61938;48.652;9.292;2023-08-01T07:16:31;12.48;;;5.07;;
73642;SDS011;61938;48.652;9.292;2023-08-01T07:18:59;11.68;;;5.55;;
73642;SDS011;61938;48.652;9.292;2023-08-01T07:21:25;9.27;;;5.05;;
73642;SDS011;61938;48.652;9.292;2023-08-01T07:23:51;11.15;;;5.88;;
73642;SDS011;61938;48.652;9.292;2023-08-01T07:26:16;14.02;;;6.85;;
73642;SDS011;61938;48.652;9.292;2023-08-01T07:28:42;11.95;;;5.63;;
73642;SDS011;61938;48.652;9.292;2023-08-01T07:31:07;10.10;;;5.32;;
73642;SDS011;61938;48.652;9.292;2023-08-01T07:33:33;8.65;;;5.00;;
73642;SDS011;61938;48.652;9.292;2023-08-01T07:35:59;10.20;;;5.38;;
73642;SDS011;61938;48.652;9.292;2023-08-01T07:38:25;10.45;;;5.82;;
73642;SDS011;61938;48.652;9.292;2023-08-01T07:40:54;11.75;;;5.28;;
73642;SDS011;61938;48.652;9.292;2023-08-01T07:43:20;13.70;;;5.20;;
73642;SDS011;61938;48.652;9.292;2023-08-01T07:45:46;11.38;;;5.28;;
73642;SDS011;61938;48.652;9.292;2023-08-01T07:48:15;11.85;;;5.40;;
73642;SDS011;61938;48.652;9.292;2023-08-01T07:50:40;10.82;;;4.75;;
73642;SDS011;61938;48.652;9.292;2023-08-01T07:53:06;8.73;;;5.00;;
73642;SDS011;61938;48.652;9.292;2023-08-01T07:55:34;11.02;;;5.43;;
73642;SDS011;61938;48.652;9.292;2023-08-01T07:58:00;10.88;;;4.93;;
73642;SDS011;61938;48.652;9.292;2023-08-01T08:00:26;9.93;;;4.55;;
73642;SDS011;61938;48.652;9.292;2023-08-01T08:02:53;8.63;;;4.30;;
73642;SDS011;61938;48.652;9.292;2023-08-01T08:05:18;10.05;;;4.32;;
73642;SDS011;61938;48.652;9.292;2023-08-01T08:07:44;11.27;;;4.70;;
73642;SDS011;61938;48.652;9.292;2023-08-01T08:10:10;8.90;;;4.70;;
73642;SDS011;61938;48.652;9.292;2023-08-01T08:12:35;10.48;;;4.72;;
73642;SDS011;61938;48.652;9.292;2023-08-01T08:15:01;9.35;;;4.47;;
73642;SDS011;61938;48.652;9.292;2023-08-01T08:17:27;10.57;;;5.50;;
73642;SDS011;61938;48.652;9.292;2023-08-01T08:19:52;10.55;;;4.95;;
73642;SDS011;61938;48.652;9.292;2023-08-01T08:22:18;11.18;;;5.40;;
73642;SDS011;61938;48.652;9.292;2023-08-01T08:24:43;12.98;;;5.32;;
73642;SDS011;61938;48.652;9.292;2023-08-01T08:27:09;10.55;;;5.13;;
73642;SDS011;61938;48.652;9.292;2023-08-01T08:29:34;9.82;;;4.82;;
73642;SDS011;61938;48.652;9.292;2023-08-01T08:32:00;10.57;;;5.18;;
73642;SDS011;61938;48.652;9.292;2023-08-01T08:34:25;10.23;;;4.93;;
73642;SDS011;61938;48.652;9.292;2023-08-01T08:36:51;10.90;;;5.47;;
73642;SDS011;61938;48.652;9.292;2023-08-01T08:39:17;9.00;;;4.82;;
73642;SDS011;61938;48.652;9.292;2023-08-01T08:41:47;14.85;;;5.50;;
73642;SDS011;61938;48.652;9.292;2023-08-01T08:44:17;9.45;;;4.65;;
73642;SDS011;61938;48.652;9.292;2023-08-01T08:46:52;10.65;;;5.45;;
73642;SDS011;61938;48.652;9.292;2023-08-01T08:49:19;13.05;;;5.82;;
73642;SDS011;61938;48.652;9.292;2023-08-01T08:51:46;15.50;;;5.25;;
73642;SDS011;61938;48.652;9.292;2023-08-01T08:54:12;8.65;;;5.05;;
73642;SDS011;61938;48.652;9.292;2023-08-01T08:56:39;8.85;;;5.18;;
73642;SDS011;61938;48.652;9.292;2023-08-01T08:59:08;9.30;;;4.88;;
73642;SDS011;61938;48.652;9.292;2023-08-01T09:01:37;9.32;;;4.15;;
73642;SDS011;61938;48.652;9.292;2023-08-01T09:04:03;7.65;;;3.90;;
73642;SDS011;61938;48.652;9.292;2023-08-01T09:06:37;8.10;;;4.47;;
73642;SDS011;61938;48.652;9.292;2023-08-01T09:09:11;7.95;;;3.42;;
73642;SDS011;61938;48.652;9.292;2023-08-01T09:11:44;7.78;;;3.92;;
73642;SDS011;61938;48.652;9.292;2023-08-01T09:14:11;8.50;;;4.57;;
73642;SDS011;61938;48.652;9.292;2023-08-01T09:16:37;7.35;;;3.83;;
73642;SDS011;61938;48.652;9.292;2023-08-01T09:19:05;9.07;;;3.90;;
73642;SDS011;61938;48.652;9.292;2023-08-01T09:21:32;8.23;;;4.10;;
73642;SDS011;61938;48.652;9.292;2023-08-01T09:26:35;11.02;;;3.20;;
73642;SDS011;61938;48.652;9.292;2023-08-01T09:29:01;10.88;;;3.55;;
73642;SDS011;61938;48.652;9.292;2023-08-01T09:31:28;8.57;;;3.80;;
73642;SDS011;61938;48.652;9.292;2023-08-01T09:33:54;5.80;;;3.33;;
73642;SDS011;61938;48.652;9.292;2023-08-01T09:36:20;7.10;;;3.65;;
73642;SDS011;61938;48.652;9.292;2023-08-01T09:38:50;7.28;;;3.85;;
73642;SDS011;61938;48.652;9.292;2023-08-01T09:41:19;7.93;;;3.83;;
73642;SDS011;61938;48.652;9.292;2023-08-01T09:43:49;9.02;;;4.03;;
73642;SDS011;61938;48.652;9.292;2023-08-01T09:46:15;6.60;;;2.95;;
73642;SDS011;61938;48.652;9.292;2023-08-01T09:48:41;4.78;;;2.72;;
73642;SDS011;61938;48.652;9.292;2023-08-01T09:56:20;8.63;;;3.30;;
73642;SDS011;61938;48.652;9.292;2023-08-01T09:58:51;4.63;;;2.63;;
73642;SDS011;61938;48.652;9.292;2023-08-01T10:01:18;4.13;;;2.40;;
73642;SDS011;61938;48.652;9.292;2023-08-01T10:03:46;4.88;;;2.72;;
73642;SDS011;61938;48.652;9.292;2023-08-01T10:06:14;3.80;;;2.60;;
73642;SDS011;61938;48.652;9.292;2023-08-01T10:08:44;7.00;;;2.75;;
73642;SDS011;61938;48.652;9.292;2023-08-01T10:11:10;6.40;;;3.35;;
73642;SDS011;61938;48.652;9.292;2023-08-01T10:13:39;4.10;;;2.20;;
73642;SDS011;61938;48.652;9.292;2023-08-01T10:16:06;3.75;;;2.38;;
73642;SDS011;61938;48.652;9.292;2023-08-01T10:18:32;5.35;;;2.35;;
73642;SDS011;61938;48.652;9.292;2023-08-01T10:20:59;8.07;;;2.60;;
73642;SDS011;61938;48.652;9.292;2023-08-01T10:23:26;4.72;;;2.55;;
73642;SDS011;61938;48.652;9.292;2023-08-01T10:25:52;3.88;;;2.22;;
73642;SDS011;61938;48.652;9.292;2023-08-01T10:28:18;4.82;;;2.38;;
73642;SDS011;61938;48.652;9.292;2023-08-01T10:30:44;4.85;;;2.78;;
73642;SDS011;61938;48.652;9.292;2023-08-01T10:33:09;5.95;;;2.28;;
73642;SDS011;61938;48.652;9.292;2023-08-01T10:35:38;4.65;;;2.17;;
73642;SDS011;61938;48.652;9.292;2023-08-01T10:38:05;4.00;;;2.10;;
73642;SDS011;61938;48.652;9.292;2023-08-01T10:40:38;5.38;;;2.65;;
73642;SDS011;61938;48.652;9.292;2023-08-01T10:43:24;5.15;;;2.08;;
73642;SDS011;61938;48.652;9.292;2023-08-01T10:46:02;3.72;;;2.30;;
73642;SDS011;61938;48.652;9.292;2023-08-01T10:48:28;6.50;;;1.98;;
73642;SDS011;61938;48.652;9.292;2023-08-01T10:50:54;4.18;;;1.90;;
73642;SDS011;61938;48.652;9.292;2023-08-01T10:53:21;4.78;;;2.03;;
73642;SDS011;61938;48.652;9.292;2023-08-01T10:55:47;3.42;;;1.90;;
73642;SDS011;61938;48.652;9.292;2023-08-01T10:58:13;2.97;;;1.60;;
73642;SDS011;61938;48.652;9.292;2023-08-01T11:00:41;5.25;;;1.55;;
73642;SDS011;61938;48.652;9.292;2023-08-01T11:03:07;3.13;;;1.70;;
73642;SDS011;61938;48.652;9.292;2023-08-01T11:05:33;5.03;;;1.50;;
73642;SDS011;61938;48.652;9.292;2023-08-01T11:07:59;3.17;;;1.70;;
73642;SDS011;61938;48.652;9.292;2023-08-01T11:10:26;2.63;;;1.35;;
73642;SDS011;61938;48.652;9.292;2023-08-01T11:12:56;2.83;;;1.33;;
73642;SDS011;61938;48.652;9.292;2023-08-01T11:15:22;2.20;;;1.35;;
73642;SDS011;61938;48.652;9.292;2023-08-01T11:17:49;1.58;;;1.08;;
73642;SDS011;61938;48.652;9.292;2023-08-01T11:20:16;2.00;;;1.05;;
73642;SDS011;61938;48.652;9.292;2023-08-01T11:23:15;2.17;;;1.05;;
73642;SDS011;61938;48.652;9.292;2023-08-01T11:25:35;1.00;;;0.73;;
73642;SDS011;61938;48.652;9.292;2023-08-01T11:28:05;1.50;;;1.02;;
73642;SDS011;61938;48.652;9.292;2023-08-01T11:30:32;3.20;;;1.10;;
73642;SDS011;61938;48.652;9.292;2023-08-01T11:32:58;1.08;;;0.80;;
73642;SDS011;61938;48.652;9.292;2023-08-01T11:35:24;2.90;;;1.05;;
73642;SDS011;61938;48.652;9.292;2023-08-01T11:37:50;1.50;;;0.70;;
73642;SDS011;61938;48.652;9.292;2023-08-01T11:40:16;0.88;;;0.60;;
73642;SDS011;61938;48.652;9.292;2023-08-01T11:42:42;3.25;;;0.70;;
73642;SDS011;61938;48.652;9.292;2023-08-01T11:45:09;1.88;;;1.00;;
73642;SDS011;61938;48.652;9.292;2023-08-01T11:47:36;6.93;;;1.20;;
73642;SDS011;61938;48.652;9.292;2023-08-01T11:50:01;1.35;;;0.85;;
73642;SDS011;61938;48.652;9.292;2023-08-01T11:52:28;2.83;;;1.38;;
73642;SDS011;61938;48.652;9.292;2023-08-01T11:54:54;1.98;;;1.05;;
73642;SDS011;61938;48.652;9.292;2023-08-01T11:57:20;1.98;;;1.05;;
73642;SDS011;61938;48.652;9.292;2023-08-01T11:59:47;3.53;;;1.05;;
73642;SDS011;61938;48.652;9.292;2023-08-01T12:02:27;6.50;;;0.98;;
73642;SDS011;61938;48.652;9.292;2023-08-01T12:04:55;2.58;;;1.27;;
73642;SDS011;61938;48.652;9.292;2023-08-01T12:07:24;1.25;;;0.95;;
73642;SDS011;61938;48.652;9.292;2023-08-01T12:09:57;3.15;;;1.13;;
73642;SDS011;61938;48.652;9.292;2023-08-01T12:12:25;2.38;;;1.30;;
73642;SDS011;61938;48.652;9.292;2023-08-01T12:14:52;1.60;;;1.00;;
73642;SDS011;61938;48.652;9.292;2023-08-01T12:17:17;2.65;;;1.15;;
73642;SDS011;61938;48.652;9.292;2023-08-01T12:19:43;5.35;;;1.85;;
73642;SDS011;61938;48.652;9.292;2023-08-01T12:22:09;2.50;;;1.00;;
73642;SDS011;61938;48.652;9.292;2023-08-01T12:24:35;3.15;;;1.20;;
73642;SDS011;61938;48.652;9.292;2023-08-01T12:27:03;1.63;;;1.10;;
73642;SDS011;61938;48.652;9.292;2023-08-01T12:29:32;1.17;;;0.90;;
73642;SDS011;61938;48.652;9.292;2023-08-01T12:31:58;2.40;;;1.20;;
73642;SDS011;61938;48.652;9.292;2023-08-01T12:34:23;5.75;;;1.25;;
73642;SDS011;61938;48.652;9.292;2023-08-01T12:36:49;1.55;;;1.10;;
73642;SDS011;61938;48.652;9.292;2023-08-01T12:39:15;7.15;;;1.38;;
73642;SDS011;61938;48.652;9.292;2023-08-01T12:41:41;2.30;;;0.77;;
73642;SDS011;61938;48.652;9.292;2023-08-01T12:44:06;1.90;;;1.05;;
73642;SDS011;61938;48.652;9.292;2023-08-01T12:46:32;5.47;;;1.35;;
73642;SDS011;61938;48.652;9.292;2023-08-01T12:48:58;1.58;;;1.08;;
73642;SDS011;61938;48.652;9.292;2023-08-01T12:51:23;1.67;;;1.17;;
73642;SDS011;61938;48.652;9.292;2023-08-01T12:53:49;2.40;;;1.20;;
73642;SDS011;61938;48.652;9.292;2023-08-01T12:56:14;2.20;;;1.10;;
73642;SDS011;61938;48.652;9.292;2023-08-01T12:58:40;2.05;;;1.30;;
73642;SDS011;61938;48.652;9.292;2023-08-01T13:01:05;2.10;;;1.05;;
73642;SDS011;61938;48.652;9.292;2023-08-01T13:03:31;2.45;;;1.35;;
73642;SDS011;61938;48.652;9.292;2023-08-01T13:05:57;1.58;;;1.15;;
73642;SDS011;61938;48.652;9.292;2023-08-01T13:08:23;1.92;;;1.10;;
73642;SDS011;61938;48.652;9.292;2023-08-01T13:10:48;3.45;;;1.00;;
73642;SDS011;61938;48.652;9.292;2023-08-01T13:13:15;2.95;;;1.20;;
73642;SDS011;61938;48.652;9.292;2023-08-01T13:15:41;6.43;;;1.50;;
73642;SDS011;61938;48.652;9.292;2023-08-01T13:18:06;1.55;;;1.20;;
73642;SDS011;61938;48.652;9.292;2023-08-01T13:20:32;5.35;;;1.55;;
73642;SDS011;61938;48.652;9.292;2023-08-01T13:22:57;2.70;;;1.42;;
73642;SDS011;61938;48.652;9.292;2023-08-01T13:25:23;5.75;;;1.63;;
73642;SDS011;61938;48.652;9.292;2023-08-01T13:27:48;6.32;;;1.60;;
73642;SDS011;61938;48.652;9.292;2023-08-01T13:30:14;2.85;;;1.33;;
73642;SDS011;61938;48.652;9.292;2023-08-01T13:32:42;2.75;;;1.10;;
73642;SDS011;61938;48.652;9.292;2023-08-01T13:35:08;2.38;;;1.52;;
73642;SDS011;61938;48.652;9.292;2023-08-01T13:37:33;2.70;;;1.63;;
73642;SDS011;61938;48.652;9.292;2023-08-01T13:40:00;5.47;;;1.65;;
73642;SDS011;61938;48.652;9.292;2023-08-01T13:42:25;2.90;;;1.67;;
73642;SDS011;61938;48.652;9.292;2023-08-01T13:44:53;5.90;;;1.60;;
73642;SDS011;61938;48.652;9.292;2023-08-01T13:47:19;5.07;;;1.48;;
73642;SDS011;61938;48.652;9.292;2023-08-01T13:49:45;4.43;;;1.13;;
73642;SDS011;61938;48.652;9.292;2023-08-01T13:52:10;2.70;;;1.40;;
73642;SDS011;61938;48.652;9.292;2023-08-01T13:54:36;5.00;;;1.42;;
73642;SDS011;61938;48.652;9.292;2023-08-01T13:57:01;4.30;;;1.20;;
73642;SDS011;61938;48.652;9.292;2023-08-01T13:59:27;5.50;;;1.30;;
73642;SDS011;61938;48.652;9.292;2023-08-01T14:01:52;3.55;;;1.55;;
73642;SDS011;61938;48.652;9.292;2023-08-01T14:04:18;2.72;;;1.60;;
73642;SDS011;61938;48.652;9.292;2023-08-01T14:06:44;3.08;;;1.27;;
73642;SDS011;61938;48.652;9.292;2023-08-01T14:09:10;3.00;;;1.23;;
73642;SDS011;61938;48.652;9.292;2023-08-01T14:11:36;3.83;;;1.67;;
73642;SDS011;61938;48.652;9.292;2023-08-01T14:14:02;2.75;;;1.40;;
73642;SDS011;61938;48.652;9.292;2023-08-01T14:16:27;4.25;;;1.35;;
73642;SDS011;61938;48.652;9.292;2023-08-01T14:18:53;7.13;;;1.67;;
73642;SDS011;61938;48.652;9.292;2023-08-01T14:21:19;2.08;;;1.30;;
73642;SDS011;61938;48.652;9.292;2023-08-01T14:23:44;4.18;;;1.48;;
73642;SDS011;61938;48.652;9.292;2023-08-01T14:26:10;2.72;;;1.40;;
73642;SDS011;61938;48.652;9.292;2023-08-01T14:28:35;4.65;;;1.52;;
73642;SDS011;61938;48.652;9.292;2023-08-01T14:31:01;3.08;;;1.27;;
73642;SDS011;61938;48.652;9.292;2023-08-01T14:33:27;3.03;;;1.75;;
73642;SDS011;61938;48.652;9.292;2023-08-01T14:35:53;3.33;;;1.60;;
73642;SDS011;61938;48.652;9.292;2023-08-01T14:38:19;2.88;;;1.27;;
73642;SDS011;61938;48.652;9.292;2023-08-01T14:40:45;3.60;;;1.45;;
73642;SDS011;61938;48.652;9.292;2023-08-01T14:43:10;4.60;;;1.20;;
73642;SDS011;61938;48.652;9.292;2023-08-01T14:45:39;3.15;;;1.50;;
73642;SDS011;61938;48.652;9.292;2023-08-01T14:48:05;4.80;;;1.50;;
73642;SDS011;61938;48.652;9.292;2023-08-01T14:50:31;3.83;;;1.58;;